createdAt,value
2022-08-18T00:02:16.289Z,13.60
2022-08-18T00:04:48.845Z,13.63
2022-08-18T00:07:19.403Z,12.07
2022-08-18T00:09:49.734Z,10.87
2022-08-18T00:12:19.669Z,13.47
2022-08-18T00:14:48.996Z,12.20
2022-08-18T00:17:18.013Z,15.43
2022-08-18T00:19:48.388Z,16.60
2022-08-18T00:22:18.187Z,14.57
2022-08-18T00:24:48.571Z,14.73
2022-08-18T00:27:21.704Z,16.27
2022-08-18T00:29:51.652Z,15.57
2022-08-18T00:32:21.673Z,18.27
2022-08-18T00:34:50.262Z,17.07
2022-08-18T00:37:19.081Z,16.53
2022-08-18T00:39:48.228Z,14.77
2022-08-18T00:42:27.064Z,16.73
2022-08-18T00:45:00.879Z,14.60
2022-08-18T00:47:41.360Z,13.03
2022-08-18T00:50:16.331Z,12.80
2022-08-18T00:52:51.015Z,12.10
2022-08-18T00:55:20.055Z,11.93
2022-08-18T00:57:50.357Z,11.90
2022-08-18T01:00:21.167Z,12.30
2022-08-18T01:02:52.368Z,12.67
2022-08-18T01:05:23.608Z,12.77
2022-08-18T01:07:52.710Z,12.70
2022-08-18T01:10:22.464Z,13.30
2022-08-18T01:12:52.089Z,13.03
2022-08-18T01:15:27.631Z,12.93
2022-08-18T01:18:15.050Z,12.40
2022-08-18T01:21:04.954Z,14.27
2022-08-18T01:23:35.115Z,15.83
2022-08-18T01:26:04.333Z,14.93
2022-08-18T01:28:34.997Z,13.83
2022-08-18T01:31:04.385Z,14.37
2022-08-18T01:33:34.272Z,14.60
2022-08-18T01:36:03.997Z,14.97
2022-08-18T01:38:33.048Z,13.20
2022-08-18T01:41:25.867Z,13.50
2022-08-18T01:43:51.789Z,14.53
2022-08-18T01:46:21.164Z,16.50
2022-08-18T01:48:50.259Z,19.37
2022-08-18T01:51:20.452Z,19.67
2022-08-18T01:54:08.329Z,19.10
2022-08-18T01:56:38.276Z,19.33
2022-08-18T01:59:07.180Z,17.37
2022-08-18T02:01:48.354Z,16.57
2022-08-18T02:04:35.214Z,15.57
2022-08-18T02:07:06.201Z,15.10
2022-08-18T02:09:35.124Z,14.23
2022-08-18T02:12:05.717Z,13.60
2022-08-18T02:14:34.708Z,14.53
2022-08-18T02:17:04.034Z,12.73
2022-08-18T02:19:34.611Z,13.90
2022-08-18T02:22:03.426Z,13.57
2022-08-18T02:24:32.142Z,20.13
2022-08-18T02:27:00.869Z,18.93
2022-08-18T02:29:31.077Z,20.00
2022-08-18T02:31:59.756Z,17.90
2022-08-18T02:34:28.353Z,16.33
2022-08-18T02:36:56.950Z,15.10
2022-08-18T02:39:25.544Z,14.37
2022-08-18T02:41:54.435Z,13.53
2022-08-18T02:44:23.164Z,13.70
2022-08-18T02:46:54.965Z,15.23
2022-08-18T02:49:23.722Z,15.87
2022-08-18T02:51:52.562Z,14.33
2022-08-18T02:54:23.073Z,14.00
2022-08-18T02:56:52.834Z,13.57
2022-08-18T02:59:24.151Z,13.77
2022-08-18T03:01:54.005Z,16.30
2022-08-18T03:04:29.421Z,17.47
2022-08-18T03:07:00.471Z,15.83
2022-08-18T03:09:29.358Z,14.63
2022-08-18T03:11:58.226Z,14.73
2022-08-18T03:14:26.837Z,14.33
2022-08-18T03:16:55.604Z,16.33
2022-08-18T03:19:28.736Z,18.03
2022-08-18T03:22:02.998Z,16.00
2022-08-18T03:24:32.894Z,16.20
2022-08-18T03:27:01.896Z,15.57
2022-08-18T03:29:32.692Z,15.23
2022-08-18T03:32:01.978Z,15.93
2022-08-18T03:34:32.206Z,14.47
2022-08-18T03:37:01.291Z,14.57
2022-08-18T03:39:30.288Z,14.80
2022-08-18T03:42:01.505Z,16.93
2022-08-18T03:44:31.755Z,20.47
2022-08-18T03:47:02.725Z,20.00
2022-08-18T03:49:33.500Z,18.27
2022-08-18T03:52:02.331Z,16.57
2022-08-18T03:54:32.522Z,15.80
2022-08-18T03:57:01.513Z,15.13
2022-08-18T03:59:31.890Z,16.23
2022-08-18T04:02:00.924Z,18.77
2022-08-18T04:04:30.131Z,15.93
2022-08-18T04:07:01.049Z,16.93
2022-08-18T04:09:31.598Z,14.70
2022-08-18T04:12:04.568Z,16.53
2022-08-18T04:14:35.573Z,15.33
2022-08-18T04:17:04.210Z,16.30
2022-08-18T04:19:34.509Z,21.13
2022-08-18T04:22:04.652Z,21.77
2022-08-18T04:24:34.365Z,18.83
2022-08-18T04:27:05.809Z,20.50
2022-08-18T04:29:34.452Z,17.83
2022-08-18T04:32:04.845Z,18.17
2022-08-18T04:34:33.982Z,17.50
2022-08-18T04:37:04.445Z,18.80
2022-08-18T04:39:33.138Z,22.10
2022-08-18T04:42:05.032Z,21.00
2022-08-18T04:44:33.722Z,22.33
2022-08-18T04:47:02.740Z,21.27
2022-08-18T04:49:32.101Z,20.77
2022-08-18T04:52:36.733Z,19.97
2022-08-18T04:55:09.017Z,24.33
2022-08-18T04:57:37.653Z,27.60
2022-08-18T05:00:08.301Z,30.00
2022-08-18T05:02:36.933Z,28.03
2022-08-18T05:05:05.685Z,33.07
2022-08-18T05:07:34.427Z,31.83
2022-08-18T05:10:03.058Z,29.80
2022-08-18T05:12:33.055Z,38.27
2022-08-18T05:15:01.644Z,38.93
2022-08-18T05:17:31.227Z,38.27
2022-08-18T05:20:01.442Z,37.07
2022-08-18T05:22:31.741Z,32.87
2022-08-18T05:25:00.989Z,35.37
2022-08-18T05:27:35.150Z,39.53
2022-08-18T05:30:04.084Z,41.07
2022-08-18T05:32:46.992Z,40.83
2022-08-18T05:35:22.215Z,38.27
2022-08-18T05:37:57.055Z,49.13
2022-08-18T05:40:25.900Z,44.63
2022-08-18T05:42:57.360Z,37.37
2022-08-18T05:45:26.194Z,37.70
2022-08-18T05:47:59.862Z,40.27
2022-08-18T05:50:29.560Z,39.20
2022-08-18T05:52:59.268Z,43.53
2022-08-18T05:55:49.124Z,38.60
2022-08-18T05:58:20.861Z,39.57
2022-08-18T06:00:58.813Z,40.30
2022-08-18T06:03:29.800Z,34.03
2022-08-18T06:06:15.185Z,37.10
2022-08-18T06:08:45.452Z,37.87
2022-08-18T06:11:22.528Z,30.33
2022-08-18T06:13:59.646Z,30.50
2022-08-18T06:16:39.182Z,30.00
2022-08-18T06:19:19.497Z,30.67
2022-08-18T06:21:52.570Z,30.53
2022-08-18T06:24:24.915Z,27.70
2022-08-18T06:26:56.974Z,32.73
2022-08-18T06:29:34.410Z,31.57
2022-08-18T06:32:11.366Z,30.33
2022-08-18T06:34:43.774Z,34.60
2022-08-18T06:37:14.558Z,25.43
2022-08-18T06:39:47.030Z,29.07
2022-08-18T06:42:18.248Z,28.10
2022-08-18T06:44:50.449Z,26.00
2022-08-18T06:47:26.147Z,28.03
2022-08-18T06:50:02.734Z,27.00
2022-08-18T06:52:32.253Z,26.73
2022-08-18T06:55:02.318Z,38.90
2022-08-18T06:57:33.301Z,41.17
2022-08-18T07:00:07.679Z,37.47
2022-08-18T07:02:41.981Z,43.70
2022-08-18T07:05:19.185Z,39.03
2022-08-18T07:07:48.593Z,33.67
2022-08-18T07:10:30.791Z,39.93
2022-08-18T07:13:23.369Z,44.37
2022-08-18T07:15:53.814Z,36.83
2022-08-18T07:18:26.996Z,37.90
2022-08-18T07:20:57.021Z,28.30
2022-08-18T07:23:28.496Z,28.40
2022-08-18T07:26:05.268Z,23.77
2022-08-18T07:28:36.621Z,30.23
2022-08-18T07:31:17.257Z,32.53
2022-08-18T07:33:49.570Z,39.63
2022-08-18T07:36:19.297Z,30.77
2022-08-18T07:38:50.180Z,26.80
2022-08-18T07:41:20.920Z,28.23
2022-08-18T07:43:57.296Z,33.50
2022-08-18T07:46:30.325Z,35.20
2022-08-18T07:48:59.919Z,27.87
2022-08-18T07:51:33.870Z,32.83
2022-08-18T07:54:25.229Z,38.60
2022-08-18T07:57:02.983Z,36.90
2022-08-18T07:59:34.739Z,34.50
2022-08-18T08:02:13.851Z,35.20
2022-08-18T08:04:44.987Z,31.53
2022-08-18T08:07:25.188Z,33.73
2022-08-18T08:10:03.204Z,30.67
2022-08-18T08:12:38.042Z,28.63
2022-08-18T08:15:13.962Z,28.47
2022-08-18T08:17:48.317Z,24.37
2022-08-18T08:20:24.036Z,22.47
2022-08-18T08:23:09.328Z,24.33
2022-08-18T08:25:46.918Z,24.70
2022-08-18T08:28:22.930Z,24.03
2022-08-18T08:31:09.032Z,19.10
2022-08-18T08:33:49.909Z,22.50
2022-08-18T08:36:21.363Z,21.03
2022-08-18T08:38:52.674Z,18.57
2022-08-18T08:41:25.689Z,19.80
2022-08-18T08:43:57.385Z,23.23
2022-08-18T08:46:29.894Z,21.73
2022-08-18T08:49:03.772Z,23.20
2022-08-18T08:51:36.458Z,25.00
2022-08-18T08:54:08.107Z,24.47
2022-08-18T08:56:38.263Z,20.40
2022-08-18T08:59:09.556Z,20.20
2022-08-18T09:01:42.674Z,18.13
2022-08-18T09:04:18.955Z,17.80
2022-08-18T09:06:50.722Z,17.33
2022-08-18T09:09:27.221Z,17.00
2022-08-18T09:12:07.655Z,21.27
2022-08-18T09:15:03.299Z,18.80
2022-08-18T09:17:47.410Z,22.87
2022-08-18T09:20:28.828Z,23.73
2022-08-18T09:23:01.208Z,23.07
2022-08-18T09:25:34.097Z,25.00
2022-08-18T09:28:12.218Z,23.70
2022-08-18T09:30:43.058Z,25.67
2022-08-18T09:39:38.800Z,22.63
2022-08-18T09:42:10.824Z,26.40
2022-08-18T09:45:01.997Z,21.03
2022-08-18T09:47:58.970Z,22.53
2022-08-18T09:50:38.625Z,25.17
2022-08-18T09:53:33.217Z,25.33
2022-08-18T09:56:05.415Z,23.13
2022-08-18T09:59:10.851Z,25.43
2022-08-18T10:01:54.269Z,24.47
2022-08-18T10:04:29.677Z,21.57
2022-08-18T10:07:14.391Z,22.77
2022-08-18T10:09:49.522Z,22.77
2022-08-18T10:12:32.888Z,20.30
2022-08-18T10:15:27.021Z,23.70
2022-08-18T10:18:12.049Z,20.07
2022-08-18T10:20:44.015Z,26.07
2022-08-18T10:23:13.446Z,23.97
2022-08-18T10:25:46.323Z,22.17
2022-08-18T10:28:42.024Z,27.33
2022-08-18T10:31:13.142Z,22.97
2022-08-18T10:33:59.179Z,26.37
2022-08-18T10:36:48.538Z,26.13
2022-08-18T10:39:19.172Z,24.63
2022-08-18T10:41:56.649Z,27.30
2022-08-18T10:44:29.594Z,29.30
2022-08-18T10:47:01.906Z,27.40
2022-08-18T10:49:32.235Z,26.20
2022-08-18T10:52:20.704Z,23.63
2022-08-18T10:55:10.306Z,21.33
2022-08-18T10:57:44.988Z,28.60
2022-08-18T11:00:17.421Z,27.00
2022-08-18T11:03:01.830Z,27.17
2022-08-18T11:05:32.926Z,26.00
2022-08-18T11:08:03.165Z,25.13
2022-08-18T11:11:06.581Z,25.73
2022-08-18T11:13:51.482Z,26.07
2022-08-18T11:16:27.324Z,23.37
2022-08-18T11:19:00.289Z,25.40
2022-08-18T11:21:41.669Z,23.77
2022-08-18T11:24:13.783Z,20.33
2022-08-18T11:26:43.930Z,21.10
2022-08-18T11:29:23.563Z,18.33
2022-08-18T11:31:53.652Z,17.63
2022-08-18T11:34:32.168Z,18.43
2022-08-18T11:37:03.144Z,20.23
2022-08-18T11:39:44.076Z,19.60
2022-08-18T11:42:21.793Z,20.07
2022-08-18T11:45:07.672Z,18.43
2022-08-18T11:47:39.740Z,18.17
2022-08-18T11:50:11.726Z,18.97
2022-08-18T11:52:53.970Z,16.93
2022-08-18T11:55:25.190Z,18.13
2022-08-18T11:57:56.219Z,18.17
2022-08-18T12:03:45.485Z,18.53
2022-08-18T12:06:27.037Z,18.20
2022-08-18T12:08:59.106Z,17.63
2022-08-18T12:11:29.406Z,17.93
2022-08-18T12:14:01.656Z,15.83
2022-08-18T12:16:50.722Z,17.03
2022-08-18T12:19:22.235Z,17.77
2022-08-18T12:21:56.029Z,18.57
2022-08-18T12:24:36.931Z,18.00
2022-08-18T12:29:58.247Z,17.13
2022-08-18T12:35:16.792Z,18.83
2022-08-18T12:38:04.965Z,17.37
2022-08-18T12:40:41.141Z,17.90
2022-08-18T12:43:09.753Z,17.60
2022-08-18T12:45:39.452Z,17.37
2022-08-18T12:48:10.409Z,17.43
2022-08-18T12:50:49.684Z,16.50
2022-08-18T12:53:29.609Z,15.70
2022-08-18T12:56:07.336Z,13.90
2022-08-18T12:58:37.410Z,13.00
2022-08-18T13:01:09.412Z,16.43
2022-08-18T13:03:38.976Z,16.63
2022-08-18T13:06:11.467Z,15.03
2022-08-18T13:08:48.094Z,15.37
2022-08-18T13:11:23.447Z,15.40
2022-08-18T13:13:56.074Z,14.63
2022-08-18T13:16:38.545Z,14.43
2022-08-18T13:19:10.852Z,16.03
2022-08-18T13:21:42.877Z,15.00
2022-08-18T13:24:13.405Z,15.67
2022-08-18T13:26:46.228Z,16.23
2022-08-18T13:29:15.378Z,15.83
2022-08-18T13:31:56.098Z,15.77
2022-08-18T13:34:29.737Z,14.93
2022-08-18T13:36:58.992Z,16.27
2022-08-18T13:39:31.381Z,15.60
2022-08-18T13:42:26.866Z,15.57
2022-08-18T13:44:53.314Z,15.80
2022-08-18T13:47:23.466Z,16.70
2022-08-18T13:49:58.183Z,16.10
2022-08-18T13:52:35.628Z,14.97
2022-08-18T13:55:11.704Z,16.03
2022-08-18T13:57:48.117Z,16.27
2022-08-18T14:00:29.623Z,15.47
2022-08-18T14:03:00.597Z,12.70
2022-08-18T14:05:36.506Z,10.63
2022-08-18T14:08:19.913Z,11.57
2022-08-18T14:10:51.333Z,11.67
2022-08-18T14:13:24.885Z,10.90
2022-08-18T14:15:54.988Z,10.20
2022-08-18T14:18:29.050Z,13.10
2022-08-18T14:21:23.210Z,11.57
2022-08-18T14:24:10.706Z,12.37
2022-08-18T14:26:51.034Z,12.37
2022-08-18T14:29:45.496Z,11.27
2022-08-18T14:32:09.412Z,10.97
2022-08-18T14:34:50.867Z,11.27
2022-08-18T14:37:20.059Z,9.27
2022-08-18T14:39:50.428Z,10.00
2022-08-18T14:42:41.371Z,9.83
2022-08-18T14:45:17.499Z,9.93
2022-08-18T14:47:56.679Z,9.10
2022-08-18T14:50:26.706Z,9.90
2022-08-18T14:52:55.317Z,9.90
2022-08-18T14:55:24.005Z,9.37
2022-08-18T14:57:54.608Z,6.60
2022-08-18T15:00:24.201Z,5.70
2022-08-18T15:02:53.185Z,5.57
2022-08-18T15:05:24.767Z,5.30
2022-08-18T15:07:54.160Z,5.70
2022-08-18T15:10:23.642Z,6.50
2022-08-18T15:12:59.645Z,6.07
2022-08-18T15:15:42.215Z,5.50
2022-08-18T15:18:22.729Z,5.27
2022-08-18T15:21:10.256Z,6.40
2022-08-18T15:24:19.587Z,5.60
2022-08-18T15:26:51.541Z,6.43
2022-08-18T15:29:22.588Z,7.60
2022-08-18T15:32:02.157Z,7.17
2022-08-18T15:34:47.381Z,6.20
2022-08-18T15:37:24.433Z,5.43
2022-08-18T15:40:00.912Z,6.53
2022-08-18T15:42:31.313Z,5.90
2022-08-18T15:45:12.054Z,6.10
2022-08-18T15:47:42.592Z,5.60
2022-08-18T15:50:25.581Z,6.07
2022-08-18T15:52:56.053Z,5.50
2022-08-18T15:55:25.105Z,5.53
2022-08-18T15:57:58.157Z,6.63
2022-08-18T16:00:29.709Z,5.60
2022-08-18T16:02:59.941Z,4.80
2022-08-18T16:05:30.442Z,4.90
2022-08-18T16:07:59.877Z,5.20
2022-08-18T16:10:30.025Z,5.60
2022-08-18T16:12:59.097Z,5.37
2022-08-18T16:15:34.061Z,4.53
2022-08-18T16:18:05.887Z,4.93
2022-08-18T16:20:34.533Z,5.60
2022-08-18T16:23:03.308Z,5.03
2022-08-18T16:25:31.899Z,5.07
2022-08-18T16:28:01.014Z,5.43
2022-08-18T16:30:32.577Z,4.60
2022-08-18T16:33:02.716Z,4.40
2022-08-18T16:35:31.922Z,4.60
2022-08-18T16:38:04.367Z,3.97
2022-08-18T16:40:33.177Z,4.17
2022-08-18T16:43:01.768Z,4.30
2022-08-18T16:45:33.356Z,3.83
2022-08-18T16:48:02.236Z,4.17
2022-08-18T16:50:31.388Z,4.13
2022-08-18T16:53:00.040Z,4.00
2022-08-18T16:55:28.774Z,4.70
2022-08-18T16:58:17.413Z,3.73
2022-08-18T17:01:05.241Z,3.53
2022-08-18T17:03:51.692Z,3.57
2022-08-18T17:06:20.671Z,4.30
2022-08-18T17:08:49.270Z,3.77
2022-08-18T17:11:19.560Z,3.30
2022-08-18T17:13:48.914Z,3.63
2022-08-18T17:16:19.127Z,4.23
2022-08-18T17:18:48.075Z,4.60
2022-08-18T17:21:18.319Z,4.00
2022-08-18T17:23:47.124Z,3.90
2022-08-18T17:26:19.181Z,3.90
2022-08-18T17:28:50.793Z,3.37
2022-08-18T17:31:24.323Z,3.97
2022-08-18T17:33:53.894Z,4.00
2022-08-18T17:36:23.509Z,3.77
2022-08-18T17:38:57.167Z,4.00
2022-08-18T17:41:26.252Z,3.77
2022-08-18T17:43:57.030Z,3.47
2022-08-18T17:46:30.153Z,3.90
2022-08-18T17:49:01.592Z,3.87
2022-08-18T17:51:34.283Z,3.33
2022-08-18T17:54:06.204Z,3.73
2022-08-18T17:56:38.512Z,3.20
2022-08-18T17:59:45.443Z,3.40
2022-08-18T18:02:28.815Z,3.40
2022-08-18T18:04:59.160Z,3.40
2022-08-18T18:07:28.825Z,3.13
2022-08-18T18:09:59.423Z,3.40
2022-08-18T18:12:29.647Z,2.47
2022-08-18T18:14:59.045Z,3.07
2022-08-18T18:17:30.400Z,3.30
2022-08-18T18:20:12.873Z,3.10
2022-08-18T18:22:46.227Z,4.10
2022-08-18T18:25:34.603Z,3.93
2022-08-18T18:28:03.913Z,3.70
2022-08-18T18:30:33.366Z,3.97
2022-08-18T18:33:04.994Z,4.63
2022-08-18T18:35:54.361Z,4.50
2022-08-18T18:38:27.949Z,3.70
2022-08-18T18:40:58.852Z,3.73
2022-08-18T18:43:28.944Z,4.03
2022-08-18T18:46:07.881Z,3.80
2022-08-18T18:48:51.249Z,3.70
2022-08-18T18:51:33.581Z,3.67
2022-08-18T18:54:10.352Z,3.53
2022-08-18T18:56:40.993Z,3.40
2022-08-18T18:59:19.046Z,3.90
2022-08-18T19:01:51.670Z,3.77
2022-08-18T19:04:26.102Z,3.97
2022-08-18T19:06:59.828Z,4.30
2022-08-18T19:09:33.195Z,3.70
2022-08-18T19:12:07.089Z,4.37
2022-08-18T19:14:38.280Z,4.23
2022-08-18T19:17:14.305Z,4.40
2022-08-18T19:19:46.196Z,4.10
2022-08-18T19:22:19.117Z,4.40
2022-08-18T19:24:52.358Z,4.63
2022-08-18T19:27:25.567Z,4.20
2022-08-18T19:29:56.059Z,4.10
2022-08-18T19:32:28.221Z,4.80
2022-08-18T19:34:58.548Z,4.43
2022-08-18T19:37:32.296Z,4.87
2022-08-18T19:40:04.430Z,5.30
2022-08-18T19:42:35.638Z,5.40
2022-08-18T19:45:16.519Z,5.13
2022-08-18T19:47:49.048Z,5.70
2022-08-18T19:50:33.485Z,6.33
2022-08-18T19:53:19.715Z,5.80
2022-08-18T19:56:01.509Z,5.50
2022-08-18T19:58:49.150Z,5.67
2022-08-18T20:01:36.770Z,5.47
2022-08-18T20:04:13.307Z,5.10
2022-08-18T20:06:52.808Z,5.30
2022-08-18T20:09:39.541Z,6.07
2022-08-18T20:12:16.021Z,6.17
2022-08-18T20:14:44.962Z,6.03
2022-08-18T20:17:16.691Z,5.90
2022-08-18T20:19:50.671Z,5.23
2022-08-18T20:22:34.988Z,6.73
2022-08-18T20:25:11.247Z,6.10
2022-08-18T20:27:41.300Z,5.40
2022-08-18T20:30:30.677Z,5.33
2022-08-18T20:33:19.649Z,5.33
2022-08-18T20:35:52.857Z,5.77
2022-08-18T20:38:34.673Z,5.63
2022-08-18T20:41:18.163Z,6.03
2022-08-18T20:43:47.707Z,7.37
2022-08-18T20:46:23.539Z,6.83
2022-08-18T20:49:06.020Z,6.93
2022-08-18T20:51:37.444Z,6.30
2022-08-18T20:54:13.632Z,6.47
2022-08-18T20:56:46.282Z,6.43
2022-08-18T20:59:18.406Z,6.23
2022-08-18T21:01:54.962Z,7.13
2022-08-18T21:04:42.921Z,6.82
2022-08-18T21:07:17.584Z,7.53
2022-08-18T21:09:52.369Z,7.20
2022-08-18T21:12:28.620Z,6.87
2022-08-18T21:14:59.617Z,7.97
2022-08-18T21:17:30.388Z,7.40
2022-08-18T21:20:03.037Z,7.10
2022-08-18T21:22:32.388Z,6.87
2022-08-18T21:25:03.379Z,6.77
2022-08-18T21:27:33.865Z,6.47
2022-08-18T21:30:03.598Z,6.93
2022-08-18T21:32:34.072Z,6.80
2022-08-18T21:35:08.020Z,6.07
2022-08-18T21:37:42.499Z,6.03
2022-08-18T21:40:13.528Z,6.87
2022-08-18T21:42:47.032Z,7.20
2022-08-18T21:45:17.458Z,6.90
2022-08-18T21:47:50.543Z,6.30
2022-08-18T21:50:23.039Z,6.17
2022-08-18T21:52:53.467Z,5.83
2022-08-18T21:55:26.896Z,5.90
2022-08-18T21:58:03.436Z,5.90
2022-08-18T22:00:33.826Z,6.13
2022-08-18T22:03:11.726Z,5.57
2022-08-18T22:05:57.798Z,6.03
2022-08-18T22:08:29.857Z,6.90
2022-08-18T22:11:59.696Z,6.50
2022-08-18T22:14:36.211Z,6.27
2022-08-18T22:17:26.996Z,6.23
2022-08-18T22:19:56.073Z,6.37
2022-08-18T22:22:42.776Z,7.07
2022-08-18T22:25:13.105Z,7.47
2022-08-18T22:27:50.297Z,6.87
2022-08-18T22:30:19.039Z,6.60
2022-08-18T22:32:47.833Z,6.20
2022-08-18T22:35:16.555Z,7.47
2022-08-18T22:37:50.542Z,6.87
2022-08-18T22:40:21.593Z,6.87
2022-08-18T22:42:52.177Z,6.87
2022-08-18T22:45:21.279Z,6.53
2022-08-18T22:47:49.880Z,6.87
2022-08-18T22:50:18.581Z,6.27
2022-08-18T22:52:49.429Z,5.70
2022-08-18T22:55:23.841Z,6.20
2022-08-18T22:57:56.281Z,6.90
2022-08-18T23:00:26.211Z,7.27
2022-08-18T23:02:55.134Z,6.73
2022-08-18T23:05:24.684Z,6.57
2022-08-18T23:07:53.304Z,6.60
2022-08-18T23:10:22.045Z,7.73
2022-08-18T23:12:51.353Z,7.30
2022-08-18T23:15:22.846Z,7.03
2022-08-18T23:17:51.969Z,7.03
2022-08-18T23:20:20.656Z,7.13
2022-08-18T23:22:55.233Z,6.83
2022-08-18T23:25:23.850Z,7.37
2022-08-18T23:27:55.386Z,6.90
2022-08-18T23:30:30.307Z,6.17
2022-08-18T23:32:59.164Z,6.57
2022-08-18T23:35:27.994Z,6.70
2022-08-18T23:37:56.640Z,7.03
2022-08-18T23:40:25.558Z,8.63
2022-08-18T23:42:54.321Z,8.10
2022-08-18T23:45:23.054Z,7.13
2022-08-18T23:47:53.273Z,7.13
2022-08-18T23:50:27.072Z,7.00
2022-08-18T23:52:57.559Z,7.20
2022-08-18T23:55:26.556Z,6.47
2022-08-18T23:57:55.173Z,6.90
